sensor_id;sensor_type;location;lat;lon;timestamp;temperature;humidity
18648;DHT22;9453;50.294;18.644;2022-11-03T05:00:49;6.40;99.90
18648;DHT22;9453;50.294;18.644;2022-11-03T05:03:22;6.40;99.90
18648;DHT22;9453;50.294;18.644;2022-11-03T05:05:51;6.40;99.90
18648;DHT22;9453;50.294;18.644;2022-11-03T05:08:19;6.40;99.90
18648;DHT22;9453;50.294;18.644;2022-11-03T05:10:47;6.30;99.90
18648;DHT22;9453;50.294;18.644;2022-11-03T05:13:19;6.30;99.90
18648;DHT22;9453;50.294;18.644;2022-11-03T05:15:50;6.30;99.90
18648;DHT22;9453;50.294;18.644;2022-11-03T05:18:19;6.20;99.90
18648;DHT22;9453;50.294;18.644;2022-11-03T05:20:50;6.20;99.90
18648;DHT22;9453;50.294;18.644;2022-11-03T05:23:19;6.20;99.90
18648;DHT22;9453;50.294;18.644;2022-11-03T05:25:49;6.20;99.90
18648;DHT22;9453;50.294;18.644;2022-11-03T05:28:22;6.10;99.90
18648;DHT22;9453;50.294;18.644;2022-11-03T05:30:52;6.10;99.90
18648;DHT22;9453;50.294;18.644;2022-11-03T05:33:21;6.10;99.90
18648;DHT22;9453;50.294;18.644;2022-11-03T05:35:50;6.00;99.90
18648;DHT22;9453;50.294;18.644;2022-11-03T05:38:20;6.00;99.90
18648;DHT22;9453;50.294;18.644;2022-11-03T05:40:50;5.90;99.90
18648;DHT22;9453;50.294;18.644;2022-11-03T05:43:18;6.00;99.90
18648;DHT22;9453;50.294;18.644;2022-11-03T05:45:46;6.00;99.90
18648;DHT22;9453;50.294;18.644;2022-11-03T05:48:18;6.00;99.90
18648;DHT22;9453;50.294;18.644;2022-11-03T05:50:47;6.00;99.90
18648;DHT22;9453;50.294;18.644;2022-11-03T05:53:34;6.00;99.90
18648;DHT22;9453;50.294;18.644;2022-11-03T05:56:04;6.00;99.90
18648;DHT22;9453;50.294;18.644;2022-11-03T05:58:34;6.10;99.90
18648;DHT22;9453;50.294;18.644;2022-11-03T06:01:09;6.30;99.90
18648;DHT22;9453;50.294;18.644;2022-11-03T06:03:38;6.20;99.90
18648;DHT22;9453;50.294;18.644;2022-11-03T06:06:14;6.20;99.90
18648;DHT22;9453;50.294;18.644;2022-11-03T06:08:42;6.20;99.90
18648;DHT22;9453;50.294;18.644;2022-11-03T06:11:15;6.20;99.90
18648;DHT22;9453;50.294;18.644;2022-11-03T06:13:45;6.20;99.90
18648;DHT22;9453;50.294;18.644;2022-11-03T06:19:17;6.30;99.90
18648;DHT22;9453;50.294;18.644;2022-11-03T06:21:45;6.40;99.90
18648;DHT22;9453;50.294;18.644;2022-11-03T06:24:13;6.60;99.90
18648;DHT22;9453;50.294;18.644;2022-11-03T06:26:42;6.50;99.90
18648;DHT22;9453;50.294;18.644;2022-11-03T06:29:13;6.60;99.90
18648;DHT22;9453;50.294;18.644;2022-11-03T06:31:41;6.50;99.90
18648;DHT22;9453;50.294;18.644;2022-11-03T06:34:21;6.50;99.90
18648;DHT22;9453;50.294;18.644;2022-11-03T06:36:51;6.60;99.90
18648;DHT22;9453;50.294;18.644;2022-11-03T06:39:21;6.60;99.90
18648;DHT22;9453;50.294;18.644;2022-11-03T06:41:48;6.60;99.90
18648;DHT22;9453;50.294;18.644;2022-11-03T06:44:21;6.60;99.90
18648;DHT22;9453;50.294;18.644;2022-11-03T06:46:48;6.70;99.90
18648;DHT22;9453;50.294;18.644;2022-11-03T06:49:27;6.70;99.90
18648;DHT22;9453;50.294;18.644;2022-11-03T06:51:55;6.80;99.90
18648;DHT22;9453;50.294;18.644;2022-11-03T06:54:22;6.80;99.90
18648;DHT22;9453;50.294;18.644;2022-11-03T06:56:49;6.80;99.90
18648;DHT22;9453;50.294;18.644;2022-11-03T06:59:17;6.80;99.90
18648;DHT22;9453;50.294;18.644;2022-11-03T07:01:47;6.90;99.90
18648;DHT22;9453;50.294;18.644;2022-11-03T07:04:19;6.90;99.90
18648;DHT22;9453;50.294;18.644;2022-11-03T07:06:47;6.90;99.90
18648;DHT22;9453;50.294;18.644;2022-11-03T07:09:19;7.00;99.90
18648;DHT22;9453;50.294;18.644;2022-11-03T07:11:49;7.10;99.90
18648;DHT22;9453;50.294;18.644;2022-11-03T07:14:18;7.10;99.90
18648;DHT22;9453;50.294;18.644;2022-11-03T07:16:48;7.20;99.90
18648;DHT22;9453;50.294;18.644;2022-11-03T07:19:18;7.20;99.90
18648;DHT22;9453;50.294;18.644;2022-11-03T07:21:48;7.20;99.90
18648;DHT22;9453;50.294;18.644;2022-11-03T07:24:18;7.20;99.90
18648;DHT22;9453;50.294;18.644;2022-11-03T07:26:47;7.30;99.90
18648;DHT22;9453;50.294;18.644;2022-11-03T07:29:18;7.30;99.90
18648;DHT22;9453;50.294;18.644;2022-11-03T07:31:46;7.30;99.90
18648;DHT22;9453;50.294;18.644;2022-11-03T07:34:19;7.30;99.90
18648;DHT22;9453;50.294;18.644;2022-11-03T07:36:49;7.40;99.90
18648;DHT22;9453;50.294;18.644;2022-11-03T07:39:19;7.40;99.90
18648;DHT22;9453;50.294;18.644;2022-11-03T07:41:47;7.50;99.90
18648;DHT22;9453;50.294;18.644;2022-11-03T07:44:18;7.50;99.90
18648;DHT22;9453;50.294;18.644;2022-11-03T07:46:46;7.70;99.90
18648;DHT22;9453;50.294;18.644;2022-11-03T07:49:22;7.70;99.90
18648;DHT22;9453;50.294;18.644;2022-11-03T07:51:52;7.80;99.90
18648;DHT22;9453;50.294;18.644;2022-11-03T07:54:20;7.80;99.90
18648;DHT22;9453;50.294;18.644;2022-11-03T07:56:50;7.90;99.90
18648;DHT22;9453;50.294;18.644;2022-11-03T07:59:20;8.00;99.90
18648;DHT22;9453;50.294;18.644;2022-11-03T08:01:48;8.00;99.90
18648;DHT22;9453;50.294;18.644;2022-11-03T08:04:19;8.10;99.90
18648;DHT22;9453;50.294;18.644;2022-11-03T08:06:46;8.20;99.90
18648;DHT22;9453;50.294;18.644;2022-11-03T08:09:15;8.20;99.90
18648;DHT22;9453;50.294;18.644;2022-11-03T08:11:42;8.40;99.90
18648;DHT22;9453;50.294;18.644;2022-11-03T08:14:09;8.40;99.90
18648;DHT22;9453;50.294;18.644;2022-11-03T08:16:36;8.50;99.90
18648;DHT22;9453;50.294;18.644;2022-11-03T08:19:03;8.80;99.90
18648;DHT22;9453;50.294;18.644;2022-11-03T08:21:30;8.90;99.90
18648;DHT22;9453;50.294;18.644;2022-11-03T08:23:57;9.00;99.90
18648;DHT22;9453;50.294;18.644;2022-11-03T08:26:26;9.10;99.90
18648;DHT22;9453;50.294;18.644;2022-11-03T08:28:53;9.20;99.90
18648;DHT22;9453;50.294;18.644;2022-11-03T08:31:20;9.30;99.90
18648;DHT22;9453;50.294;18.644;2022-11-03T08:33:46;9.50;99.90
18648;DHT22;9453;50.294;18.644;2022-11-03T08:36:13;9.60;99.90
18648;DHT22;9453;50.294;18.644;2022-11-03T08:38:40;9.70;99.90
18648;DHT22;9453;50.294;18.644;2022-11-03T08:41:07;9.80;99.90
18648;DHT22;9453;50.294;18.644;2022-11-03T08:43:36;9.90;99.90
18648;DHT22;9453;50.294;18.644;2022-11-03T08:46:03;10.00;99.90
18648;DHT22;9453;50.294;18.644;2022-11-03T08:48:30;10.10;99.90
18648;DHT22;9453;50.294;18.644;2022-11-03T08:50:56;10.30;99.90
18648;DHT22;9453;50.294;18.644;2022-11-03T08:53:25;10.30;99.90
18648;DHT22;9453;50.294;18.644;2022-11-03T08:55:52;10.40;99.90
18648;DHT22;9453;50.294;18.644;2022-11-03T08:58:19;10.50;99.90
18648;DHT22;9453;50.294;18.644;2022-11-03T09:00:47;10.50;99.90
18648;DHT22;9453;50.294;18.644;2022-11-03T09:03:14;10.70;99.90
18648;DHT22;9453;50.294;18.644;2022-11-03T09:05:41;10.70;99.90
18648;DHT22;9453;50.294;18.644;2022-11-03T09:08:08;10.90;99.90
18648;DHT22;9453;50.294;18.644;2022-11-03T09:10:35;11.00;99.90
18648;DHT22;9453;50.294;18.644;2022-11-03T09:13:02;11.10;99.90
18648;DHT22;9453;50.294;18.644;2022-11-03T09:15:29;11.20;99.90
18648;DHT22;9453;50.294;18.644;2022-11-03T09:17:58;11.30;99.90
18648;DHT22;9453;50.294;18.644;2022-11-03T09:20:25;11.30;99.90
18648;DHT22;9453;50.294;18.644;2022-11-03T09:22:52;11.40;99.90
18648;DHT22;9453;50.294;18.644;2022-11-03T09:25:19;11.50;99.90
18648;DHT22;9453;50.294;18.644;2022-11-03T09:27:46;11.60;99.90
18648;DHT22;9453;50.294;18.644;2022-11-03T09:30:13;11.70;99.90
18648;DHT22;9453;50.294;18.644;2022-11-03T09:32:39;11.80;99.90
18648;DHT22;9453;50.294;18.644;2022-11-03T09:35:08;11.90;99.90
18648;DHT22;9453;50.294;18.644;2022-11-03T09:37:36;12.00;99.90
18648;DHT22;9453;50.294;18.644;2022-11-03T09:40:04;12.10;99.90
18648;DHT22;9453;50.294;18.644;2022-11-03T09:42:32;12.10;99.90
18648;DHT22;9453;50.294;18.644;2022-11-03T09:45:00;12.20;99.90
18648;DHT22;9453;50.294;18.644;2022-11-03T09:47:30;12.30;99.90
18648;DHT22;9453;50.294;18.644;2022-11-03T09:49:58;12.40;99.90
18648;DHT22;9453;50.294;18.644;2022-11-03T09:52:27;12.40;99.90
18648;DHT22;9453;50.294;18.644;2022-11-03T09:54:54;12.50;99.90
18648;DHT22;9453;50.294;18.644;2022-11-03T09:57:24;12.60;99.90
18648;DHT22;9453;50.294;18.644;2022-11-03T09:59:52;12.60;99.90
18648;DHT22;9453;50.294;18.644;2022-11-03T10:02:23;12.60;99.90
18648;DHT22;9453;50.294;18.644;2022-11-03T10:04:51;12.70;99.90
18648;DHT22;9453;50.294;18.644;2022-11-03T10:07:19;12.80;99.90
18648;DHT22;9453;50.294;18.644;2022-11-03T10:09:50;12.80;99.40
18648;DHT22;9453;50.294;18.644;2022-11-03T10:12:18;12.90;99.10
18648;DHT22;9453;50.294;18.644;2022-11-03T10:14:46;12.90;98.00
18648;DHT22;9453;50.294;18.644;2022-11-03T10:17:16;12.90;96.90
18648;DHT22;9453;50.294;18.644;2022-11-03T10:19:46;13.00;96.70
18648;DHT22;9453;50.294;18.644;2022-11-03T10:22:14;13.10;96.90
18648;DHT22;9453;50.294;18.644;2022-11-03T10:24:41;13.10;96.50
18648;DHT22;9453;50.294;18.644;2022-11-03T10:27:21;13.10;96.10
18648;DHT22;9453;50.294;18.644;2022-11-03T10:30:05;13.20;95.80
18648;DHT22;9453;50.294;18.644;2022-11-03T10:32:33;13.20;94.60
18648;DHT22;9453;50.294;18.644;2022-11-03T10:35:01;13.30;94.00
18648;DHT22;9453;50.294;18.644;2022-11-03T10:37:29;13.30;93.40
18648;DHT22;9453;50.294;18.644;2022-11-03T10:39:57;13.30;92.70
18648;DHT22;9453;50.294;18.644;2022-11-03T10:42:26;13.40;92.50
18648;DHT22;9453;50.294;18.644;2022-11-03T10:45:09;13.40;92.00
18648;DHT22;9453;50.294;18.644;2022-11-03T10:47:37;13.40;91.50
18648;DHT22;9453;50.294;18.644;2022-11-03T10:50:19;13.50;91.10
18648;DHT22;9453;50.294;18.644;2022-11-03T10:52:47;13.50;89.80
18648;DHT22;9453;50.294;18.644;2022-11-03T10:55:15;13.60;90.10
18648;DHT22;9453;50.294;18.644;2022-11-03T10:57:45;13.60;88.90
18648;DHT22;9453;50.294;18.644;2022-11-03T11:00:15;13.60;89.00
18648;DHT22;9453;50.294;18.644;2022-11-03T11:02:44;13.70;88.70
18648;DHT22;9453;50.294;18.644;2022-11-03T11:05:14;13.80;89.10
18648;DHT22;9453;50.294;18.644;2022-11-03T11:07:43;13.80;89.10
18648;DHT22;9453;50.294;18.644;2022-11-03T11:10:13;13.90;87.20
18648;DHT22;9453;50.294;18.644;2022-11-03T11:13:22;13.90;86.50
18648;DHT22;9453;50.294;18.644;2022-11-03T11:15:51;14.00;84.70
18648;DHT22;9453;50.294;18.644;2022-11-03T11:21:55;14.00;82.40
18648;DHT22;9453;50.294;18.644;2022-11-03T11:25:00;14.10;82.60
18648;DHT22;9453;50.294;18.644;2022-11-03T11:27:53;14.20;82.00
18648;DHT22;9453;50.294;18.644;2022-11-03T11:33:32;14.40;79.40
18648;DHT22;9453;50.294;18.644;2022-11-03T11:36:17;14.40;79.50
18648;DHT22;9453;50.294;18.644;2022-11-03T11:38:56;14.50;78.70
18648;DHT22;9453;50.294;18.644;2022-11-03T11:44:48;14.60;77.60
18648;DHT22;9453;50.294;18.644;2022-11-03T11:47:25;14.70;78.60
18648;DHT22;9453;50.294;18.644;2022-11-03T11:50:22;14.70;80.30
18648;DHT22;9453;50.294;18.644;2022-11-03T11:52:56;14.80;80.60
18648;DHT22;9453;50.294;18.644;2022-11-03T11:55:33;14.80;81.10
18648;DHT22;9453;50.294;18.644;2022-11-03T11:58:05;14.80;80.60
18648;DHT22;9453;50.294;18.644;2022-11-03T12:00:50;14.80;81.10
18648;DHT22;9453;50.294;18.644;2022-11-03T12:03:23;14.70;81.60
18648;DHT22;9453;50.294;18.644;2022-11-03T12:05:53;14.80;81.70
18648;DHT22;9453;50.294;18.644;2022-11-03T12:08:26;14.80;81.90
18648;DHT22;9453;50.294;18.644;2022-11-03T12:10:58;14.70;82.10
18648;DHT22;9453;50.294;18.644;2022-11-03T12:13:43;14.70;82.10
18648;DHT22;9453;50.294;18.644;2022-11-03T12:16:26;14.70;81.60
18648;DHT22;9453;50.294;18.644;2022-11-03T12:18:54;14.70;81.80
18648;DHT22;9453;50.294;18.644;2022-11-03T12:21:44;14.70;81.70
18648;DHT22;9453;50.294;18.644;2022-11-03T12:24:25;14.70;80.90
18648;DHT22;9453;50.294;18.644;2022-11-03T12:26:53;14.70;81.00
18648;DHT22;9453;50.294;18.644;2022-11-03T12:29:20;14.70;79.50
18648;DHT22;9453;50.294;18.644;2022-11-03T12:31:47;14.60;79.50
18648;DHT22;9453;50.294;18.644;2022-11-03T12:34:14;14.60;80.30
18648;DHT22;9453;50.294;18.644;2022-11-03T12:36:41;14.60;80.40
18648;DHT22;9453;50.294;18.644;2022-11-03T12:39:12;14.50;80.60
18648;DHT22;9453;50.294;18.644;2022-11-03T12:41:39;14.50;80.80
18648;DHT22;9453;50.294;18.644;2022-11-03T12:44:06;14.50;80.40
18648;DHT22;9453;50.294;18.644;2022-11-03T12:46:33;14.40;80.70
18648;DHT22;9453;50.294;18.644;2022-11-03T12:49:00;14.40;81.30
18648;DHT22;9453;50.294;18.644;2022-11-03T12:51:27;14.40;81.00
18648;DHT22;9453;50.294;18.644;2022-11-03T12:53:54;14.40;81.20
18648;DHT22;9453;50.294;18.644;2022-11-03T12:56:22;14.40;81.40
18648;DHT22;9453;50.294;18.644;2022-11-03T12:58:49;14.30;80.00
18648;DHT22;9453;50.294;18.644;2022-11-03T13:01:16;14.40;80.20
18648;DHT22;9453;50.294;18.644;2022-11-03T13:03:43;14.30;80.30
18648;DHT22;9453;50.294;18.644;2022-11-03T13:06:10;14.20;79.80
18648;DHT22;9453;50.294;18.644;2022-11-03T13:08:39;14.20;79.30
18648;DHT22;9453;50.294;18.644;2022-11-03T13:11:06;14.20;78.30
18648;DHT22;9453;50.294;18.644;2022-11-03T13:13:57;14.20;78.70
18648;DHT22;9453;50.294;18.644;2022-11-03T13:16:24;14.20;78.80
18648;DHT22;9453;50.294;18.644;2022-11-03T13:18:51;14.10;77.90
18648;DHT22;9453;50.294;18.644;2022-11-03T13:21:18;14.10;76.50
18648;DHT22;9453;50.294;18.644;2022-11-03T13:23:45;14.10;77.00
18648;DHT22;9453;50.294;18.644;2022-11-03T13:26:12;14.10;77.00
18648;DHT22;9453;50.294;18.644;2022-11-03T13:28:39;14.00;76.30
18648;DHT22;9453;50.294;18.644;2022-11-03T13:31:07;14.00;75.60
18648;DHT22;9453;50.294;18.644;2022-11-03T13:33:35;13.90;74.90
18648;DHT22;9453;50.294;18.644;2022-11-03T13:36:02;13.90;75.30
18648;DHT22;9453;50.294;18.644;2022-11-03T13:38:29;13.80;75.40
18648;DHT22;9453;50.294;18.644;2022-11-03T13:40:56;13.80;75.20
18648;DHT22;9453;50.294;18.644;2022-11-03T13:43:23;13.90;75.60
18648;DHT22;9453;50.294;18.644;2022-11-03T13:45:50;13.90;76.00
18648;DHT22;9453;50.294;18.644;2022-11-03T13:48:18;14.00;75.40
18648;DHT22;9453;50.294;18.644;2022-11-03T13:50:45;14.00;75.50
18648;DHT22;9453;50.294;18.644;2022-11-03T13:53:15;14.00;75.70
18648;DHT22;9453;50.294;18.644;2022-11-03T13:55:42;14.10;75.80
18648;DHT22;9453;50.294;18.644;2022-11-03T13:58:10;14.10;75.40
18648;DHT22;9453;50.294;18.644;2022-11-03T14:00:37;14.20;75.40
18648;DHT22;9453;50.294;18.644;2022-11-03T14:03:04;14.20;74.70
18648;DHT22;9453;50.294;18.644;2022-11-03T14:05:32;14.20;74.60
18648;DHT22;9453;50.294;18.644;2022-11-03T14:07:59;14.20;74.10
18648;DHT22;9453;50.294;18.644;2022-11-03T14:10:26;14.20;73.90
18648;DHT22;9453;50.294;18.644;2022-11-03T14:12:53;14.20;74.10
18648;DHT22;9453;50.294;18.644;2022-11-03T14:15:20;14.20;74.00
18648;DHT22;9453;50.294;18.644;2022-11-03T14:17:47;14.20;74.30
18648;DHT22;9453;50.294;18.644;2022-11-03T14:20:14;14.20;74.50
18648;DHT22;9453;50.294;18.644;2022-11-03T14:22:42;14.20;74.00
18648;DHT22;9453;50.294;18.644;2022-11-03T14:25:09;14.20;74.60
18648;DHT22;9453;50.294;18.644;2022-11-03T14:27:36;14.10;74.50
18648;DHT22;9453;50.294;18.644;2022-11-03T14:30:04;14.10;74.60
18648;DHT22;9453;50.294;18.644;2022-11-03T14:32:31;14.00;75.30
18648;DHT22;9453;50.294;18.644;2022-11-03T14:34:58;14.00;74.90
18648;DHT22;9453;50.294;18.644;2022-11-03T14:37:25;14.00;75.40
18648;DHT22;9453;50.294;18.644;2022-11-03T14:39:54;13.90;75.60
18648;DHT22;9453;50.294;18.644;2022-11-03T14:42:21;13.90;75.80
18648;DHT22;9453;50.294;18.644;2022-11-03T14:44:47;13.90;76.10
18648;DHT22;9453;50.294;18.644;2022-11-03T14:47:15;13.90;76.60
18648;DHT22;9453;50.294;18.644;2022-11-03T14:49:43;13.90;76.80
18648;DHT22;9453;50.294;18.644;2022-11-03T14:52:10;13.80;77.00
18648;DHT22;9453;50.294;18.644;2022-11-03T14:54:37;13.80;77.10
18648;DHT22;9453;50.294;18.644;2022-11-03T14:57:06;13.70;77.20
18648;DHT22;9453;50.294;18.644;2022-11-03T14:59:34;13.70;77.60
18648;DHT22;9453;50.294;18.644;2022-11-03T15:02:01;13.70;77.90
18648;DHT22;9453;50.294;18.644;2022-11-03T15:04:29;13.60;78.20
18648;DHT22;9453;50.294;18.644;2022-11-03T15:06:56;13.60;78.20
18648;DHT22;9453;50.294;18.644;2022-11-03T15:09:23;13.50;78.70
18648;DHT22;9453;50.294;18.644;2022-11-03T15:11:50;13.50;79.10
18648;DHT22;9453;50.294;18.644;2022-11-03T15:14:19;13.50;79.10
18648;DHT22;9453;50.294;18.644;2022-11-03T15:16:46;13.50;79.20
18648;DHT22;9453;50.294;18.644;2022-11-03T15:19:13;13.50;79.70
18648;DHT22;9453;50.294;18.644;2022-11-03T15:21:40;13.50;79.60
18648;DHT22;9453;50.294;18.644;2022-11-03T15:24:07;13.40;79.50
18648;DHT22;9453;50.294;18.644;2022-11-03T15:26:34;13.50;79.50
18648;DHT22;9453;50.294;18.644;2022-11-03T15:29:01;13.40;79.80
18648;DHT22;9453;50.294;18.644;2022-11-03T15:31:30;13.40;79.90
18648;DHT22;9453;50.294;18.644;2022-11-03T15:33:56;13.40;80.20
18648;DHT22;9453;50.294;18.644;2022-11-03T15:36:23;13.30;80.30
18648;DHT22;9453;50.294;18.644;2022-11-03T15:38:50;13.30;80.60
18648;DHT22;9453;50.294;18.644;2022-11-03T15:41:17;13.30;80.80
18648;DHT22;9453;50.294;18.644;2022-11-03T15:43:46;13.20;80.80
18648;DHT22;9453;50.294;18.644;2022-11-03T15:46:16;13.10;81.00
18648;DHT22;9453;50.294;18.644;2022-11-03T15:48:45;13.00;81.00
18648;DHT22;9453;50.294;18.644;2022-11-03T15:51:13;12.90;81.40
18648;DHT22;9453;50.294;18.644;2022-11-03T15:53:41;12.90;81.90
18648;DHT22;9453;50.294;18.644;2022-11-03T15:56:09;12.80;82.00
18648;DHT22;9453;50.294;18.644;2022-11-03T15:58:36;12.70;82.90
18648;DHT22;9453;50.294;18.644;2022-11-03T16:01:04;12.70;83.30
18648;DHT22;9453;50.294;18.644;2022-11-03T16:03:31;12.60;83.80
18648;DHT22;9453;50.294;18.644;2022-11-03T16:05:59;12.60;84.50
18648;DHT22;9453;50.294;18.644;2022-11-03T16:08:26;12.50;84.60
18648;DHT22;9453;50.294;18.644;2022-11-03T16:10:54;12.50;85.00
18648;DHT22;9453;50.294;18.644;2022-11-03T16:13:21;12.40;85.70
18648;DHT22;9453;50.294;18.644;2022-11-03T16:15:48;12.40;86.60
18648;DHT22;9453;50.294;18.644;2022-11-03T16:18:15;12.30;86.60
18648;DHT22;9453;50.294;18.644;2022-11-03T16:20:43;12.30;87.10
18648;DHT22;9453;50.294;18.644;2022-11-03T16:23:11;12.30;87.90
18648;DHT22;9453;50.294;18.644;2022-11-03T16:25:38;12.20;88.10
18648;DHT22;9453;50.294;18.644;2022-11-03T16:28:05;12.20;88.50
18648;DHT22;9453;50.294;18.644;2022-11-03T16:30:32;12.20;89.20
18648;DHT22;9453;50.294;18.644;2022-11-03T16:33:00;12.20;89.70
18648;DHT22;9453;50.294;18.644;2022-11-03T16:35:27;12.20;89.70
18648;DHT22;9453;50.294;18.644;2022-11-03T16:37:54;12.10;90.10
18648;DHT22;9453;50.294;18.644;2022-11-03T16:40:23;12.10;90.20
18648;DHT22;9453;50.294;18.644;2022-11-03T16:42:50;12.10;90.50
18648;DHT22;9453;50.294;18.644;2022-11-03T16:45:18;12.10;90.50
18648;DHT22;9453;50.294;18.644;2022-11-03T16:47:47;12.00;90.70
18648;DHT22;9453;50.294;18.644;2022-11-03T16:50:15;12.00;90.70
18648;DHT22;9453;50.294;18.644;2022-11-03T16:52:43;11.90;90.90
18648;DHT22;9453;50.294;18.644;2022-11-03T16:55:10;11.90;91.10
18648;DHT22;9453;50.294;18.644;2022-11-03T16:57:39;11.90;91.30
18648;DHT22;9453;50.294;18.644;2022-11-03T17:00:10;11.90;91.50
18648;DHT22;9453;50.294;18.644;2022-11-03T17:02:38;11.80;92.00
18648;DHT22;9453;50.294;18.644;2022-11-03T17:05:06;11.80;91.60
18648;DHT22;9453;50.294;18.644;2022-11-03T17:07:33;11.80;91.80
18648;DHT22;9453;50.294;18.644;2022-11-03T17:10:01;11.80;91.80
18648;DHT22;9453;50.294;18.644;2022-11-03T17:12:27;11.90;91.80
18648;DHT22;9453;50.294;18.644;2022-11-03T17:14:56;12.00;92.10
18648;DHT22;9453;50.294;18.644;2022-11-03T17:17:23;12.10;92.00
18648;DHT22;9453;50.294;18.644;2022-11-03T17:19:50;12.00;91.90
18648;DHT22;9453;50.294;18.644;2022-11-03T17:22:17;12.00;91.90
18648;DHT22;9453;50.294;18.644;2022-11-03T17:24:44;12.10;92.00
18648;DHT22;9453;50.294;18.644;2022-11-03T17:27:14;12.10;92.00
18648;DHT22;9453;50.294;18.644;2022-11-03T17:29:43;12.10;92.00
18648;DHT22;9453;50.294;18.644;2022-11-03T17:32:14;12.10;91.80
18648;DHT22;9453;50.294;18.644;2022-11-03T17:34:43;12.20;92.00
18648;DHT22;9453;50.294;18.644;2022-11-03T17:37:10;12.20;92.00
18648;DHT22;9453;50.294;18.644;2022-11-03T17:39:37;12.20;92.00
18648;DHT22;9453;50.294;18.644;2022-11-03T17:42:16;12.20;92.20
18648;DHT22;9453;50.294;18.644;2022-11-03T17:44:44;12.20;92.20
18648;DHT22;9453;50.294;18.644;2022-11-03T17:47:13;12.30;92.30
18648;DHT22;9453;50.294;18.644;2022-11-03T17:49:40;12.20;92.20
18648;DHT22;9453;50.294;18.644;2022-11-03T17:52:12;12.20;92.30
18648;DHT22;9453;50.294;18.644;2022-11-03T17:54:39;12.20;92.30
18648;DHT22;9453;50.294;18.644;2022-11-03T17:57:10;12.20;92.30
18648;DHT22;9453;50.294;18.644;2022-11-03T17:59:39;12.10;92.30
18648;DHT22;9453;50.294;18.644;2022-11-03T18:02:13;12.20;92.30
18648;DHT22;9453;50.294;18.644;2022-11-03T18:04:42;12.10;92.30
18648;DHT22;9453;50.294;18.644;2022-11-03T18:07:16;12.00;92.30
18648;DHT22;9453;50.294;18.644;2022-11-03T18:09:44;12.10;92.70
18648;DHT22;9453;50.294;18.644;2022-11-03T18:12:12;12.10;92.50
18648;DHT22;9453;50.294;18.644;2022-11-03T18:14:56;12.10;92.50
18648;DHT22;9453;50.294;18.644;2022-11-03T18:17:24;12.10;92.50
18648;DHT22;9453;50.294;18.644;2022-11-03T18:19:51;12.10;92.60
18648;DHT22;9453;50.294;18.644;2022-11-03T18:22:18;12.20;92.50
18648;DHT22;9453;50.294;18.644;2022-11-03T18:24:45;12.30;92.60
18648;DHT22;9453;50.294;18.644;2022-11-03T18:27:13;12.10;92.50
18648;DHT22;9453;50.294;18.644;2022-11-03T18:29:40;12.10;92.50
18648;DHT22;9453;50.294;18.644;2022-11-03T18:32:09;12.10;92.50
18648;DHT22;9453;50.294;18.644;2022-11-03T18:34:42;12.20;92.50
18648;DHT22;9453;50.294;18.644;2022-11-03T18:37:09;12.20;92.50
18648;DHT22;9453;50.294;18.644;2022-11-03T18:39:37;12.10;92.60
18648;DHT22;9453;50.294;18.644;2022-11-03T18:42:07;12.10;92.60
18648;DHT22;9453;50.294;18.644;2022-11-03T18:44:36;12.20;92.60
18648;DHT22;9453;50.294;18.644;2022-11-03T18:47:06;12.10;92.70
18648;DHT22;9453;50.294;18.644;2022-11-03T18:49:32;12.10;92.80
18648;DHT22;9453;50.294;18.644;2022-11-03T18:52:03;12.10;92.90
18648;DHT22;9453;50.294;18.644;2022-11-03T18:54:33;12.10;93.00
18648;DHT22;9453;50.294;18.644;2022-11-03T18:57:00;12.10;93.10
18648;DHT22;9453;50.294;18.644;2022-11-03T18:59:29;12.20;93.10
18648;DHT22;9453;50.294;18.644;2022-11-03T19:01:57;12.00;93.10
18648;DHT22;9453;50.294;18.644;2022-11-03T19:04:24;12.10;93.10
18648;DHT22;9453;50.294;18.644;2022-11-03T19:06:51;12.10;93.20
18648;DHT22;9453;50.294;18.644;2022-11-03T19:09:22;12.10;93.20
18648;DHT22;9453;50.294;18.644;2022-11-03T19:11:53;12.10;93.20
18648;DHT22;9453;50.294;18.644;2022-11-03T19:14:22;12.10;93.20
18648;DHT22;9453;50.294;18.644;2022-11-03T19:16:50;12.10;93.30
18648;DHT22;9453;50.294;18.644;2022-11-03T19:19:18;12.20;93.70
18648;DHT22;9453;50.294;18.644;2022-11-03T19:21:45;12.10;93.40
18648;DHT22;9453;50.294;18.644;2022-11-03T19:24:12;12.10;93.40
18648;DHT22;9453;50.294;18.644;2022-11-03T19:26:43;12.10;93.50
18648;DHT22;9453;50.294;18.644;2022-11-03T19:29:18;12.10;93.40
18648;DHT22;9453;50.294;18.644;2022-11-03T19:31:48;12.00;93.40
18648;DHT22;9453;50.294;18.644;2022-11-03T19:34:18;12.00;93.50
18648;DHT22;9453;50.294;18.644;2022-11-03T19:36:47;12.00;93.40
18648;DHT22;9453;50.294;18.644;2022-11-03T19:39:21;12.00;93.40
18648;DHT22;9453;50.294;18.644;2022-11-03T19:41:51;11.90;93.70
18648;DHT22;9453;50.294;18.644;2022-11-03T19:44:35;12.00;93.90
18648;DHT22;9453;50.294;18.644;2022-11-03T19:47:03;12.00;94.20
18648;DHT22;9453;50.294;18.644;2022-11-03T19:49:30;11.90;94.10
18648;DHT22;9453;50.294;18.644;2022-11-03T19:51:57;12.00;94.10
18648;DHT22;9453;50.294;18.644;2022-11-03T19:54:24;12.00;94.10
18648;DHT22;9453;50.294;18.644;2022-11-03T19:56:52;12.00;94.00
18648;DHT22;9453;50.294;18.644;2022-11-03T19:59:19;11.90;94.00
18648;DHT22;9453;50.294;18.644;2022-11-03T20:01:46;11.90;94.10
18648;DHT22;9453;50.294;18.644;2022-11-03T20:04:14;11.90;94.40
18648;DHT22;9453;50.294;18.644;2022-11-03T20:06:40;11.90;94.40
18648;DHT22;9453;50.294;18.644;2022-11-03T20:09:11;11.80;94.50
18648;DHT22;9453;50.294;18.644;2022-11-03T20:11:40;11.80;94.60
18648;DHT22;9453;50.294;18.644;2022-11-03T20:14:14;11.70;94.80
18648;DHT22;9453;50.294;18.644;2022-11-03T20:16:42;11.70;95.00
18648;DHT22;9453;50.294;18.644;2022-11-03T20:19:09;11.70;95.10
18648;DHT22;9453;50.294;18.644;2022-11-03T20:21:36;11.70;95.10
18648;DHT22;9453;50.294;18.644;2022-11-03T20:24:03;11.60;95.20
18648;DHT22;9453;50.294;18.644;2022-11-03T20:26:31;11.60;95.40
18648;DHT22;9453;50.294;18.644;2022-11-03T20:28:59;11.60;95.70
18648;DHT22;9453;50.294;18.644;2022-11-03T20:31:28;11.50;95.60
18648;DHT22;9453;50.294;18.644;2022-11-03T20:33:55;11.50;95.60
18648;DHT22;9453;50.294;18.644;2022-11-03T20:36:23;11.60;95.90
18648;DHT22;9453;50.294;18.644;2022-11-03T20:38:52;11.50;96.00
18648;DHT22;9453;50.294;18.644;2022-11-03T20:41:26;11.50;96.10
18648;DHT22;9453;50.294;18.644;2022-11-03T20:43:53;11.50;96.30
18648;DHT22;9453;50.294;18.644;2022-11-03T20:46:22;11.50;96.30
18648;DHT22;9453;50.294;18.644;2022-11-03T20:48:54;11.40;96.20
18648;DHT22;9453;50.294;18.644;2022-11-03T20:51:24;11.40;96.30
18648;DHT22;9453;50.294;18.644;2022-11-03T20:53:51;11.40;96.40
18648;DHT22;9453;50.294;18.644;2022-11-03T20:56:20;11.40;96.50
18648;DHT22;9453;50.294;18.644;2022-11-03T20:58:48;11.40;96.50
18648;DHT22;9453;50.294;18.644;2022-11-03T21:01:16;11.50;96.70